Time;durP1;ratioP1;P1;durP2;ratioP2;P2;SDS_P1;SDS_P2;PMS_P1;PMS_P2;Temp;Humidity;BMP_temperature;BMP_pressure;BME280_temperature;BME280_humidity;BME280_pressure;Samples;Min_cycle;Max_cycle;Signal;HPM_P1;HPM_P2
2021/06/04 15:44:43;;;;;;;5.03;1.80;;;27.60;91.50;;;;;;5122405;27;20308;-74
2021/06/04 15:47:09;;;;;;;7.25;1.65;;;27.30;92.00;;;;;;5089907;28;20035;-75
2021/06/04 15:49:35;;;;;;;4.70;1.55;;;27.50;92.00;;;;;;5071332;28;20024;-75
2021/06/04 15:52:01;;;;;;;2.78;1.58;;;27.70;92.00;;;;;;5072973;28;20028;-73
2021/06/04 15:54:27;;;;;;;2.75;1.50;;;27.80;92.40;;;;;;5074598;28;20028;-74
2021/06/04 15:56:53;;;;;;;2.45;1.60;;;27.90;91.70;;;;;;5072849;28;20047;-73
2021/06/04 15:59:19;;;;;;;2.97;1.52;;;28.00;91.70;;;;;;5072659;28;20084;-75
2021/06/04 16:01:46;;;;;;;3.72;1.70;;;27.90;91.90;;;;;;5079093;28;20485;-76
2021/06/04 16:04:14;;;;;;;3.58;1.50;;;27.90;92.30;;;;;;5080280;28;20122;-76
2021/06/04 16:06:41;;;;;;;4.65;2.00;;;27.90;92.10;;;;;;5072548;28;20163;-77
2021/06/04 16:09:10;;;;;;;5.63;1.90;;;27.70;92.50;;;;;;5068354;28;20037;-77
2021/06/04 16:11:38;;;;;;;2.92;1.52;;;27.50;92.70;;;;;;5080557;28;20056;-74
2021/06/04 16:14:04;;;;;;;7.68;2.28;;;27.50;93.20;;;;;;5080285;28;20033;-75
2021/06/04 16:16:30;;;;;;;7.65;2.10;;;27.50;93.50;;;;;;5067611;28;20033;-75
2021/06/04 16:18:55;;;;;;;6.43;1.92;;;27.60;93.50;;;;;;5067750;28;20079;-75
2021/06/04 16:21:21;;;;;;;8.55;2.17;;;27.90;93.40;;;;;;5068088;28;20404;-75
2021/06/04 16:23:47;;;;;;;4.22;1.60;;;28.20;92.90;;;;;;5085676;28;20403;-75
2021/06/04 16:26:15;;;;;;;10.75;1.75;;;28.60;92.40;;;;;;5089157;28;20581;-76
2021/06/04 16:28:42;;;;;;;8.40;2.42;;;29.20;92.00;;;;;;5088530;28;20020;-76
2021/06/04 16:31:11;;;;;;;7.75;1.90;;;30.00;90.80;;;;;;5089592;28;20031;-76
2021/06/04 16:33:40;;;;;;;4.47;1.70;;;30.50;88.60;;;;;;5089818;28;20022;-76
2021/06/04 16:36:07;;;;;;;3.53;1.80;;;;;;;;;;5088155;28;20093;-75
2021/06/04 16:38:34;;;;;;;4.00;2.03;;;31.30;87.40;;;;;;5077918;28;20738;-75
2021/06/04 16:41:00;;;;;;;6.82;1.88;;;32.90;81.20;;;;;;5067646;28;20040;-76
2021/06/04 16:43:27;;;;;;;5.05;1.92;;;32.80;79.60;;;;;;5074023;28;20039;-76
2021/06/04 16:45:53;;;;;;;4.60;1.70;;;;;;;;;;5088298;28;20488;-76
2021/06/04 16:48:19;;;;;;;7.55;2.10;;;33.00;78.90;;;;;;5068278;28;20082;-75
2021/06/04 16:50:45;;;;;;;3.78;1.45;;;33.90;75.40;;;;;;5067235;28;20029;-74
2021/06/04 16:53:11;;;;;;;3.90;1.65;;;34.20;73.70;;;;;;5076869;28;20358;-75
2021/06/04 16:55:38;;;;;;;3.67;1.70;;;34.20;73.00;;;;;;5070130;28;20104;-74
2021/06/04 16:58:07;;;;;;;3.95;1.73;;;34.00;72.50;;;;;;5050365;28;20027;-72
2021/06/04 17:00:35;;;;;;;6.75;2.00;;;33.70;72.60;;;;;;5048581;28;20501;-73
2021/06/04 17:03:01;;;;;;;5.57;2.03;;;33.30;74.00;;;;;;5050892;28;20044;-74
2021/06/04 17:05:27;;;;;;;3.92;1.52;;;33.30;73.80;;;;;;5049798;28;20102;-74
2021/06/04 17:07:53;;;;;;;5.45;2.17;;;33.80;73.10;;;;;;5049657;28;20027;-74
2021/06/04 17:10:20;;;;;;;2.70;1.52;;;33.70;73.50;;;;;;5049728;28;20017;-74
2021/06/04 17:12:46;;;;;;;4.72;1.80;;;33.10;74.20;;;;;;5050199;28;20029;-76
2021/06/04 17:15:16;;;;;;;3.75;1.85;;;32.50;75.00;;;;;;5061059;28;20620;-73
2021/06/04 17:17:42;;;;;;;3.88;1.70;;;32.60;75.70;;;;;;5050605;28;20127;-75
2021/06/04 17:20:09;;;;;;;6.00;2.05;;;32.40;75.90;;;;;;5048798;28;20089;-74
2021/06/04 17:22:37;;;;;;;3.42;1.40;;;32.50;75.50;;;;;;5047515;28;20025;-73
2021/06/04 17:25:09;;;;;;;2.83;1.92;;;32.00;76.40;;;;;;5045419;28;20033;-73
2021/06/04 17:27:34;;;;;;;3.80;1.55;;;31.40;78.10;;;;;;5046550;28;20082;-73
2021/06/04 17:30:00;;;;;;;5.15;1.80;;;31.00;78.70;;;;;;5047718;28;20033;-76
2021/06/04 17:32:26;;;;;;;4.40;1.83;;;30.40;80.50;;;;;;5049132;28;20029;-75
2021/06/04 17:34:52;;;;;;;3.50;1.70;;;29.60;82.80;;;;;;5048732;28;20021;-73
2021/06/04 17:37:18;;;;;;;2.95;1.52;;;29.20;84.50;;;;;;5048926;28;20022;-73
2021/06/04 17:39:44;;;;;;;2.38;1.60;;;28.70;86.20;;;;;;5049839;28;20025;-74
2021/06/04 17:42:10;;;;;;;7.10;1.73;;;28.40;88.30;;;;;;5048412;28;20432;-73
2021/06/04 17:44:36;;;;;;;2.67;1.45;;;28.00;89.80;;;;;;5064565;28;20459;-72
2021/06/04 17:47:03;;;;;;;3.00;1.83;;;27.90;90.30;;;;;;5070054;28;20112;-73
2021/06/04 17:49:29;;;;;;;3.08;2.10;;;27.90;90.90;;;;;;5068661;28;20024;-74
2021/06/04 17:51:54;;;;;;;5.93;2.35;;;27.80;91.00;;;;;;5069720;28;20028;-75
2021/06/04 17:54:21;;;;;;;4.95;1.70;;;28.10;91.00;;;;;;5069751;28;20035;-73
2021/06/04 17:56:47;;;;;;;5.55;1.98;;;28.30;91.00;;;;;;5069368;28;20024;-73
2021/06/04 17:59:12;;;;;;;4.70;1.70;;;28.20;91.20;;;;;;5060705;28;20379;-74
2021/06/04 18:01:38;;;;;;;4.22;1.80;;;27.80;91.90;;;;;;5048099;28;20032;-74
2021/06/04 18:04:05;;;;;;;7.35;2.10;;;27.40;92.50;;;;;;5047821;28;20053;-73
2021/06/04 18:06:31;;;;;;;5.07;2.63;;;27.10;93.30;;;;;;5048656;28;20021;-73
2021/06/04 18:08:56;;;;;;;6.35;2.00;;;26.80;94.10;;;;;;5048524;28;20052;-74
2021/06/04 18:11:26;;;;;;;6.32;2.13;;;26.50;95.30;;;;;;5048830;28;20021;-74
2021/06/04 18:13:53;;;;;;;4.25;1.90;;;26.30;96.00;;;;;;5059100;28;20021;-74
2021/06/04 18:16:19;;;;;;;3.63;1.60;;;26.10;97.10;;;;;;5069076;28;20086;-74
2021/06/04 18:18:44;;;;;;;4.05;1.90;;;26.00;97.90;;;;;;5068641;28;20025;-75
2021/06/04 18:21:12;;;;;;;4.13;1.90;;;25.90;98.90;;;;;;5069215;28;20033;-73
2021/06/04 18:23:40;;;;;;;4.53;1.88;;;25.70;99.80;;;;;;5067386;28;20047;-73
2021/06/04 18:26:08;;;;;;;3.63;2.00;;;25.60;99.90;;;;;;5068783;28;20240;-73
2021/06/04 18:28:35;;;;;;;8.57;2.60;;;25.40;99.90;;;;;;5068774;28;20063;-73
2021/06/04 18:31:03;;;;;;;4.80;2.03;;;25.20;99.90;;;;;;5068733;28;20660;-73
2021/06/04 18:33:28;;;;;;;5.00;2.17;;;25.00;99.90;;;;;;5050814;28;20044;-73
2021/06/04 18:35:55;;;;;;;4.25;2.00;;;24.80;99.90;;;;;;5048762;28;20077;-74
2021/06/04 18:38:21;;;;;;;6.40;2.05;;;24.60;99.90;;;;;;5048707;28;20021;-75
2021/06/04 18:40:50;;;;;;;6.07;2.20;;;24.50;99.90;;;;;;5048219;28;20063;-75
2021/06/04 18:43:24;;;;;;;6.05;2.30;;;24.50;99.90;;;;;;5052872;28;20116;-74
2021/06/04 18:45:50;;;;;;;3.92;1.90;;;24.40;99.90;;;;;;5069026;28;20029;-74
2021/06/04 18:48:16;;;;;;;2.92;1.80;;;;;;;;;;5052737;28;20542;-75
2021/06/04 18:50:43;;;;;;;6.47;2.72;;;;;;;;;;5047840;28;20021;-74
2021/06/04 18:53:11;;;;;;;4.03;2.60;;;;;;;;;;5048834;28;20489;-73
2021/06/04 18:55:38;;;;;;;4.50;2.33;;;23.90;99.90;;;;;;5049066;28;20032;-74
2021/06/04 18:58:05;;;;;;;4.93;2.40;;;24.10;99.90;;;;;;5049654;28;20033;-74
2021/06/04 19:00:36;;;;;;;7.60;2.80;;;24.00;99.90;;;;;;5051297;28;20119;-73
2021/06/04 19:03:02;;;;;;;3.47;2.50;;;24.00;99.90;;;;;;5051298;28;20061;-75
2021/06/04 19:05:28;;;;;;;6.25;2.45;;;24.00;99.90;;;;;;5051663;28;20028;-73
2021/06/04 19:07:54;;;;;;;4.45;2.13;;;23.80;99.90;;;;;;5052009;28;20017;-74
2021/06/04 19:10:22;;;;;;;5.03;2.65;;;23.80;99.90;;;;;;5051240;28;20392;-74
2021/06/04 19:12:48;;;;;;;8.10;2.85;;;23.60;99.90;;;;;;5052419;28;20478;-74
2021/06/04 19:15:16;;;;;;;3.28;2.30;;;23.60;99.90;;;;;;5068284;28;20033;-74
2021/06/04 19:17:42;;;;;;;6.53;2.22;;;23.50;99.90;;;;;;5051957;28;20056;-74
2021/06/04 19:20:12;;;;;;;7.70;2.75;;;23.30;99.90;;;;;;5051201;28;20044;-74
2021/06/04 19:22:38;;;;;;;5.65;2.63;;;23.20;99.90;;;;;;5051974;28;20067;-76
2021/06/04 19:25:07;;;;;;;5.85;2.80;;;23.10;99.90;;;;;;5050797;28;20029;-76
2021/06/04 19:27:33;;;;;;;8.95;2.80;;;23.10;99.90;;;;;;5050707;28;20553;-74
2021/06/04 19:29:59;;;;;;;6.07;2.65;;;23.00;99.90;;;;;;5049604;28;20112;-74
2021/06/04 19:32:25;;;;;;;6.70;2.95;;;22.90;99.90;;;;;;5050222;28;20029;-74
2021/06/04 19:34:51;;;;;;;5.72;3.15;;;22.80;99.90;;;;;;5056296;28;20049;-78
2021/06/04 19:37:17;;;;;;;4.82;2.80;;;22.80;99.90;;;;;;5055264;28;20480;-74
2021/06/04 19:39:42;;;;;;;4.38;2.80;;;22.70;99.90;;;;;;5052521;28;20114;-76
2021/06/04 19:42:09;;;;;;;6.18;2.97;;;22.70;99.90;;;;;;5053001;28;20021;-75
2021/06/04 19:44:37;;;;;;;5.55;2.60;;;22.60;99.90;;;;;;5069816;28;20539;-77
2021/06/04 19:47:04;;;;;;;4.40;2.55;;;22.60;99.90;;;;;;5073424;28;20041;-77
2021/06/04 19:49:30;;;;;;;4.60;2.60;;;22.60;99.90;;;;;;5072763;28;20050;-80
2021/06/04 19:51:58;;;;;;;6.70;3.38;;;22.60;99.90;;;;;;5073578;28;20509;-80
2021/06/04 19:54:24;;;;;;;4.18;2.60;;;22.60;99.90;;;;;;5074335;28;20082;-79
2021/06/04 19:56:51;;;;;;;6.75;3.38;;;22.60;99.90;;;;;;5060453;28;20037;-70
2021/06/04 19:59:19;;;;;;;5.65;2.50;;;22.60;99.90;;;;;;5051455;28;20037;-76
2021/06/04 20:01:46;;;;;;;4.03;2.60;;;22.60;99.90;;;;;;5050362;28;20033;-74
2021/06/04 20:04:13;;;;;;;3.83;2.65;;;22.40;99.90;;;;;;5050402;28;20029;-71
2021/06/04 20:06:40;;;;;;;5.85;2.60;;;22.50;99.90;;;;;;5052436;28;20454;-74
2021/06/04 20:09:05;;;;;;;4.53;3.00;;;22.50;99.90;;;;;;5050070;28;20029;-71
2021/06/04 20:11:32;;;;;;;8.05;2.78;;;22.50;99.90;;;;;;5051303;28;20513;-76
2021/06/04 20:13:59;;;;;;;5.03;2.65;;;22.60;99.90;;;;;;5063026;28;20036;-76
2021/06/04 20:16:28;;;;;;;8.35;2.67;;;22.60;99.90;;;;;;5074480;28;20031;-77
2021/06/04 20:18:55;;;;;;;4.28;2.70;;;22.60;99.90;;;;;;5076044;28;20029;-75
2021/06/04 20:21:21;;;;;;;5.90;3.08;;;22.50;99.90;;;;;;5082219;28;20048;-75
2021/06/04 20:23:47;;;;;;;6.57;3.08;;;22.50;99.90;;;;;;5076640;28;20033;-74
2021/06/04 20:26:14;;;;;;;4.55;2.70;;;22.40;99.90;;;;;;5074697;28;20485;-79
2021/06/04 20:28:41;;;;;;;5.38;2.85;;;22.40;99.90;;;;;;5067568;28;20033;-74
2021/06/04 20:31:09;;;;;;;4.15;2.70;;;22.10;99.90;;;;;;5062251;28;20025;-76
2021/06/04 20:33:41;;;;;;;5.43;2.90;;;22.50;99.90;;;;;;5064809;28;20028;-74
2021/06/04 20:36:09;;;;;;;6.47;3.13;;;22.50;99.90;;;;;;5066852;28;20075;-81
2021/06/04 20:38:36;;;;;;;4.80;2.75;;;22.50;99.90;;;;;;5071079;28;20045;-80
2021/06/04 20:41:02;;;;;;;5.55;3.30;;;22.50;99.90;;;;;;5061185;28;20029;-78
2021/06/04 20:43:28;;;;;;;4.47;2.55;;;22.40;99.90;;;;;;5063467;28;20111;-76
2021/06/04 20:45:57;;;;;;;5.50;2.10;;;22.30;99.90;;;;;;5076352;28;20504;-77
2021/06/04 20:48:28;;;;;;;4.82;2.00;;;22.40;99.90;;;;;;5066120;28;20398;-78
2021/06/04 20:50:56;;;;;;;4.55;1.92;;;22.40;99.90;;;;;;5052254;28;20014;-76
2021/06/04 20:53:26;;;;;;;39.17;4.05;;;22.30;99.90;;;;;;5053901;28;20017;-76
2021/06/04 20:55:51;;;;;;;13.98;3.72;;;21.30;99.90;;;;;;5054162;28;20496;-77
2021/06/04 20:58:18;;;;;;;14.40;4.10;;;20.20;99.90;;;;;;5054442;28;20029;-76
2021/06/04 21:00:44;;;;;;;10.90;3.30;;;19.60;99.90;;;;;;5050703;28;20528;-77
2021/06/04 21:03:10;;;;;;;9.93;3.75;;;19.20;99.90;;;;;;5054749;28;20025;-76
2021/06/04 21:05:39;;;;;;;6.32;3.72;;;19.10;99.90;;;;;;5053566;28;20405;-77
2021/06/04 21:08:05;;;;;;;8.93;3.97;;;19.00;99.90;;;;;;5054546;28;20088;-77
2021/06/04 21:10:32;;;;;;;7.75;4.30;;;18.90;99.90;;;;;;5053770;28;20020;-77
2021/06/04 21:12:58;;;;;;;8.05;4.90;;;18.70;99.90;;;;;;5056525;28;20036;-76
2021/06/04 21:15:34;;;;;;;7.22;4.68;;;18.60;99.90;;;;;;5074521;28;20036;-77
2021/06/04 21:18:00;;;;;;;6.85;4.28;;;18.50;99.90;;;;;;5074482;28;20035;-76
2021/06/04 21:20:28;;;;;;;9.02;4.55;;;18.50;99.90;;;;;;5073737;28;20029;-76
2021/06/04 21:22:55;;;;;;;8.98;4.70;;;18.40;99.90;;;;;;5072605;28;20077;-76
2021/06/04 21:25:27;;;;;;;12.38;5.57;;;18.40;99.90;;;;;;5080971;22;20044;-78
2021/06/04 21:27:53;;;;;;;10.88;5.30;;;18.30;99.90;;;;;;5075913;28;20029;-76
2021/06/04 21:30:21;;;;;;;11.07;5.65;;;18.40;99.90;;;;;;5073781;28;20481;-77
2021/06/04 21:32:49;;;;;;;8.38;6.25;;;18.30;99.90;;;;;;5074735;28;20095;-77
2021/06/04 21:35:23;;;;;;;10.43;6.57;;;18.30;99.90;;;;;;5074349;28;20476;-77
2021/06/04 21:37:49;;;;;;;8.35;6.47;;;18.40;99.90;;;;;;5056561;28;20028;-77
2021/06/04 21:40:22;;;;;;;8.07;6.65;;;18.40;99.90;;;;;;5073628;28;20024;-77
